createdAt,value
2022-10-19T00:00:47.641Z,7.73
2022-10-19T00:03:23.384Z,10.17
2022-10-19T00:05:58.532Z,8.80
2022-10-19T00:08:33.474Z,8.17
2022-10-19T00:11:09.001Z,10.23
2022-10-19T00:13:44.130Z,9.67
2022-10-19T00:16:20.292Z,9.10
2022-10-19T00:19:01.080Z,10.80
2022-10-19T00:21:36.483Z,8.60
2022-10-19T00:24:11.666Z,11.33
2022-10-19T00:26:46.708Z,9.60
2022-10-19T00:29:22.193Z,10.20
2022-10-19T00:31:57.039Z,9.57
2022-10-19T00:34:31.922Z,9.07
2022-10-19T00:37:06.893Z,8.97
2022-10-19T00:39:41.853Z,9.60
2022-10-19T00:42:16.743Z,11.10
2022-10-19T00:44:51.630Z,9.73
2022-10-19T00:47:26.978Z,10.37
2022-10-19T00:50:02.268Z,9.00
2022-10-19T00:52:37.401Z,8.53
2022-10-19T00:55:12.956Z,9.07
2022-10-19T00:57:48.072Z,8.97
2022-10-19T01:00:23.013Z,7.90
2022-10-19T01:02:58.954Z,7.60
2022-10-19T01:05:35.345Z,9.80
2022-10-19T01:08:11.601Z,8.00
2022-10-19T01:11:07.666Z,8.53
2022-10-19T01:14:07.162Z,7.60
2022-10-19T01:17:00.307Z,9.10
2022-10-19T01:20:23.361Z,10.33
2022-10-19T01:23:25.316Z,15.50
2022-10-19T01:26:34.095Z,17.13
2022-10-19T01:29:18.746Z,13.37
2022-10-19T01:32:34.501Z,14.40
2022-10-19T01:35:47.142Z,18.07
2022-10-19T01:38:57.635Z,18.30
2022-10-19T01:41:47.954Z,15.60
2022-10-19T01:44:35.836Z,14.00
2022-10-19T01:47:28.149Z,16.87
2022-10-19T01:50:13.719Z,13.30
2022-10-19T01:52:50.023Z,15.83
2022-10-19T01:55:27.531Z,14.23
2022-10-19T01:58:09.544Z,11.03
2022-10-19T02:00:48.730Z,11.57
2022-10-19T02:03:25.254Z,10.43
2022-10-19T02:06:00.566Z,9.60
2022-10-19T02:08:43.900Z,11.10
2022-10-19T02:11:21.752Z,12.50
2022-10-19T02:14:10.162Z,12.40
2022-10-19T02:17:02.820Z,13.00
2022-10-19T02:19:37.759Z,19.40
2022-10-19T02:22:13.534Z,18.63
2022-10-19T02:24:48.722Z,14.00
2022-10-19T02:27:23.868Z,14.57
2022-10-19T02:29:58.856Z,15.50
2022-10-19T02:32:34.080Z,15.10
2022-10-19T02:35:10.903Z,16.77
2022-10-19T02:37:46.078Z,21.90
2022-10-19T02:40:22.052Z,19.60
2022-10-19T02:43:04.390Z,17.77
2022-10-19T02:45:48.551Z,19.40
2022-10-19T02:48:26.235Z,16.53
2022-10-19T02:51:01.276Z,21.70
2022-10-19T02:53:36.203Z,17.37
2022-10-19T02:56:11.161Z,18.17
2022-10-19T02:58:46.039Z,17.27
2022-10-19T03:01:21.343Z,19.40
2022-10-19T03:03:56.292Z,21.50
2022-10-19T03:06:31.241Z,15.47
2022-10-19T03:09:06.525Z,14.90
2022-10-19T03:11:41.505Z,19.23
2022-10-19T03:14:16.431Z,18.60
2022-10-19T03:16:51.307Z,21.53
2022-10-19T03:19:26.318Z,30.50
2022-10-19T03:22:01.635Z,22.30
2022-10-19T03:24:36.465Z,21.83
2022-10-19T03:27:11.309Z,27.60
2022-10-19T03:29:46.226Z,25.03
2022-10-19T03:32:21.713Z,22.43
2022-10-19T03:34:56.595Z,22.30
2022-10-19T03:37:31.648Z,21.10
2022-10-19T03:40:07.617Z,20.80
2022-10-19T03:42:42.553Z,21.63
2022-10-19T03:45:17.545Z,25.37
2022-10-19T03:47:52.542Z,26.50
2022-10-19T03:50:27.416Z,24.40
2022-10-19T03:55:38.102Z,25.07
2022-10-19T03:58:12.946Z,24.30
2022-10-19T04:00:47.872Z,20.57
2022-10-19T04:03:22.952Z,25.80
2022-10-19T04:06:10.655Z,27.80
2022-10-19T04:08:49.964Z,23.07
2022-10-19T04:11:28.741Z,27.03
2022-10-19T04:14:04.376Z,23.83
2022-10-19T04:16:43.961Z,32.73
2022-10-19T04:19:18.892Z,27.77
2022-10-19T04:21:53.765Z,33.10
2022-10-19T04:24:29.169Z,34.70
2022-10-19T04:27:04.173Z,29.73
2022-10-19T04:29:39.070Z,25.57
2022-10-19T04:32:14.288Z,22.80
2022-10-19T04:34:49.150Z,22.20
2022-10-19T04:37:24.047Z,26.53
2022-10-19T04:39:58.905Z,24.30
2022-10-19T04:42:34.135Z,25.87
2022-10-19T04:45:09.737Z,28.43
2022-10-19T04:47:44.673Z,27.87
2022-10-19T04:50:19.580Z,23.60
2022-10-19T04:52:54.425Z,24.03
2022-10-19T04:55:29.315Z,23.37
2022-10-19T04:58:04.193Z,21.73
2022-10-19T05:00:39.678Z,31.10
2022-10-19T05:03:14.866Z,27.60
2022-10-19T05:05:49.871Z,28.93
2022-10-19T05:08:24.970Z,26.83
2022-10-19T05:11:15.310Z,29.73
2022-10-19T05:13:50.863Z,31.80
2022-10-19T05:16:26.210Z,31.53
2022-10-19T05:19:01.645Z,33.23
2022-10-19T05:21:36.605Z,28.80
2022-10-19T05:24:13.394Z,29.33
2022-10-19T05:26:48.387Z,28.57
2022-10-19T05:29:24.422Z,27.50
2022-10-19T05:31:59.579Z,23.90
2022-10-19T05:34:34.512Z,23.13
2022-10-19T05:37:09.435Z,22.60
2022-10-19T05:39:44.376Z,17.80
2022-10-19T05:42:19.346Z,21.60
2022-10-19T05:44:54.270Z,20.50
2022-10-19T05:47:31.023Z,18.97
2022-10-19T05:50:06.606Z,20.33
2022-10-19T05:52:41.470Z,16.10
2022-10-19T05:55:16.455Z,16.87
2022-10-19T05:57:51.394Z,16.50
2022-10-19T06:00:26.391Z,14.00
2022-10-19T06:03:01.439Z,14.77
2022-10-19T06:05:37.296Z,12.60
2022-10-19T06:08:12.199Z,11.13
2022-10-19T06:10:47.523Z,10.57
2022-10-19T06:13:22.436Z,13.33
2022-10-19T06:15:57.378Z,10.67
2022-10-19T06:18:32.362Z,13.00
2022-10-19T06:21:11.952Z,10.50
2022-10-19T06:23:52.127Z,11.47
2022-10-19T06:26:27.979Z,10.10
2022-10-19T06:29:04.389Z,10.60
2022-10-19T06:31:39.301Z,11.57
2022-10-19T06:34:14.217Z,10.40
2022-10-19T06:36:49.251Z,9.40
2022-10-19T06:39:24.178Z,10.83
2022-10-19T06:41:59.054Z,8.33
2022-10-19T06:44:33.996Z,9.07
2022-10-19T06:47:08.964Z,7.70
2022-10-19T06:49:44.427Z,10.40
2022-10-19T06:52:19.288Z,9.80
2022-10-19T06:54:54.285Z,7.67
2022-10-19T06:57:29.274Z,7.10
2022-10-19T07:00:06.666Z,6.57
2022-10-19T07:02:41.670Z,6.93
2022-10-19T07:05:16.551Z,9.47
2022-10-19T07:07:51.583Z,8.03
2022-10-19T07:10:26.582Z,7.63
2022-10-19T07:13:01.500Z,7.10
2022-10-19T07:15:36.412Z,7.93
2022-10-19T07:18:11.433Z,5.80
2022-10-19T07:20:58.746Z,6.87
2022-10-19T07:23:36.096Z,6.97
2022-10-19T07:26:26.500Z,7.30
2022-10-19T07:29:01.524Z,8.47
2022-10-19T07:31:36.600Z,9.47
2022-10-19T07:34:14.166Z,9.67
2022-10-19T07:36:49.157Z,10.50
2022-10-19T07:39:24.285Z,11.50
2022-10-19T07:41:59.189Z,12.53
2022-10-19T07:44:34.154Z,15.90
2022-10-19T07:47:09.144Z,13.77
2022-10-19T07:49:44.135Z,12.13
2022-10-19T07:52:18.993Z,10.67
2022-10-19T07:54:55.324Z,13.23
2022-10-19T07:57:30.193Z,11.60
2022-10-19T08:00:05.962Z,9.63
2022-10-19T08:03:00.084Z,12.80
2022-10-19T08:05:42.091Z,11.43
2022-10-19T08:08:16.981Z,10.67
2022-10-19T08:10:51.999Z,11.77
2022-10-19T08:13:26.985Z,11.13
2022-10-19T08:16:02.012Z,11.67
2022-10-19T08:18:36.901Z,11.60
2022-10-19T08:21:11.889Z,13.63
2022-10-19T08:23:46.898Z,9.73
2022-10-19T08:26:22.106Z,10.97
2022-10-19T08:29:08.990Z,9.80
2022-10-19T08:31:45.973Z,9.67
2022-10-19T08:34:20.906Z,8.80
2022-10-19T08:36:55.784Z,7.73
2022-10-19T08:39:31.030Z,7.40
2022-10-19T08:42:24.856Z,7.17
2022-10-19T08:45:14.247Z,9.67
2022-10-19T08:48:27.989Z,8.17
2022-10-19T08:51:05.682Z,8.20
2022-10-19T08:53:43.605Z,7.10
2022-10-19T08:56:51.450Z,8.37
2022-10-19T09:00:19.071Z,7.40
2022-10-19T09:03:31.961Z,6.97
2022-10-19T09:06:23.150Z,8.20
2022-10-19T09:08:59.261Z,7.20
2022-10-19T09:11:42.607Z,6.23
2022-10-19T09:14:32.169Z,6.70
2022-10-19T09:17:14.499Z,7.57
2022-10-19T09:19:49.449Z,6.47
2022-10-19T09:22:32.860Z,6.40
2022-10-19T09:25:15.147Z,3.70
2022-10-19T09:28:29.207Z,3.70
2022-10-19T09:31:21.695Z,4.53
2022-10-19T09:34:05.583Z,3.47
2022-10-19T09:36:51.646Z,3.60
2022-10-19T09:39:29.865Z,4.03
2022-10-19T09:42:23.985Z,3.60
2022-10-19T09:45:01.687Z,2.93
2022-10-19T09:47:39.159Z,6.80
2022-10-19T09:50:22.658Z,2.70
2022-10-19T09:53:04.913Z,3.03
2022-10-19T09:55:43.380Z,2.23
2022-10-19T09:58:19.977Z,2.17
2022-10-19T10:00:57.699Z,2.80
2022-10-19T10:03:43.537Z,2.43
2022-10-19T10:06:21.230Z,3.60
2022-10-19T10:08:58.777Z,1.83
2022-10-19T10:11:38.132Z,1.70
2022-10-19T10:14:25.032Z,2.53
2022-10-19T10:17:16.814Z,2.20
2022-10-19T10:19:57.494Z,5.70
2022-10-19T10:22:37.570Z,1.53
2022-10-19T10:25:18.560Z,1.30
2022-10-19T10:28:19.124Z,1.60
2022-10-19T10:31:03.756Z,1.80
2022-10-19T10:33:46.258Z,1.73
2022-10-19T10:36:26.725Z,1.70
2022-10-19T10:39:07.389Z,1.70
2022-10-19T10:41:44.979Z,1.50
2022-10-19T10:44:26.474Z,1.60
2022-10-19T10:47:05.876Z,1.70
2022-10-19T10:49:42.627Z,1.60
2022-10-19T10:52:19.623Z,1.50
2022-10-19T10:55:01.906Z,1.70
2022-10-19T10:57:45.500Z,3.07
2022-10-19T11:00:24.035Z,5.00
2022-10-19T11:03:25.369Z,1.50
2022-10-19T11:06:02.709Z,1.77
2022-10-19T11:09:09.121Z,1.90
2022-10-19T11:11:47.681Z,1.57
2022-10-19T11:14:55.633Z,1.87
2022-10-19T11:17:34.436Z,1.50
2022-10-19T11:20:16.769Z,3.13
2022-10-19T11:23:10.699Z,1.77
2022-10-19T11:26:10.883Z,2.10
2022-10-19T11:29:00.571Z,1.50
2022-10-19T11:31:55.933Z,1.90
2022-10-19T11:34:56.217Z,2.00
2022-10-19T11:37:49.796Z,1.43
2022-10-19T11:40:54.280Z,1.90
2022-10-19T11:44:06.361Z,2.33
2022-10-19T11:47:21.897Z,2.40
2022-10-19T11:53:18.019Z,2.60
2022-10-19T11:56:39.336Z,8.20
2022-10-19T12:00:03.977Z,2.30
2022-10-19T12:03:52.478Z,2.47
2022-10-19T12:06:47.864Z,2.13
2022-10-19T12:09:56.920Z,2.00
2022-10-19T12:12:44.035Z,1.90
2022-10-19T12:15:29.971Z,2.17
2022-10-19T12:18:36.081Z,2.03
2022-10-19T12:21:34.319Z,3.73
2022-10-19T12:24:25.330Z,1.73
2022-10-19T12:27:01.336Z,3.40
2022-10-19T12:29:41.326Z,1.50
2022-10-19T12:32:21.758Z,1.50
2022-10-19T12:35:40.573Z,5.87
2022-10-19T12:38:45.942Z,1.80
2022-10-19T12:41:31.422Z,1.70
2022-10-19T12:44:57.753Z,1.50
2022-10-19T12:47:34.269Z,1.67
2022-10-19T12:50:09.538Z,2.97
2022-10-19T12:52:49.471Z,2.47
2022-10-19T12:55:30.409Z,1.60
2022-10-19T12:58:21.708Z,2.33
2022-10-19T13:01:03.528Z,1.80
2022-10-19T13:03:42.489Z,1.60
2022-10-19T13:06:23.461Z,2.40
2022-10-19T13:09:06.183Z,2.10
2022-10-19T13:12:25.870Z,1.93
2022-10-19T13:15:04.390Z,1.93
2022-10-19T13:17:46.364Z,2.33
2022-10-19T13:20:21.183Z,2.10
2022-10-19T13:23:04.860Z,1.83
2022-10-19T13:25:40.944Z,2.10
2022-10-19T13:28:15.706Z,2.30
2022-10-19T13:30:50.469Z,1.70
2022-10-19T13:33:42.836Z,1.70
2022-10-19T13:36:19.773Z,1.70
2022-10-19T13:39:00.388Z,1.73
2022-10-19T13:41:38.242Z,2.80
2022-10-19T13:44:13.985Z,2.20
2022-10-19T13:47:12.189Z,2.10
2022-10-19T13:50:15.262Z,1.80
2022-10-19T13:53:24.334Z,1.70
2022-10-19T13:56:30.107Z,1.77
2022-10-19T13:59:21.041Z,1.90
2022-10-19T14:02:56.229Z,1.63
2022-10-19T14:06:01.681Z,1.83
2022-10-19T14:09:01.426Z,2.07
2022-10-19T14:11:45.779Z,2.97
2022-10-19T14:14:24.971Z,1.50
2022-10-19T14:17:04.409Z,3.67
2022-10-19T14:19:59.894Z,1.70
2022-10-19T14:22:36.202Z,1.70
2022-10-19T14:25:23.749Z,3.00
2022-10-19T14:28:06.166Z,1.40
2022-10-19T14:30:41.263Z,1.67
2022-10-19T14:33:17.860Z,1.97
2022-10-19T14:35:54.336Z,1.77
2022-10-19T14:38:38.861Z,1.70
2022-10-19T14:41:36.171Z,2.50
2022-10-19T14:44:41.676Z,1.60
2022-10-19T14:47:27.838Z,1.97
2022-10-19T14:50:03.804Z,2.37
2022-10-19T14:52:40.572Z,1.60
2022-10-19T14:55:18.275Z,1.73
2022-10-19T14:57:54.180Z,1.70
2022-10-19T15:00:33.360Z,1.57
2022-10-19T15:03:12.664Z,1.33
2022-10-19T15:05:49.698Z,1.53
2022-10-19T15:08:47.700Z,1.70
2022-10-19T15:11:30.562Z,1.80
2022-10-19T15:14:14.373Z,2.07
2022-10-19T15:16:49.193Z,1.90
2022-10-19T15:19:28.781Z,2.27
2022-10-19T15:22:16.802Z,2.30
2022-10-19T15:25:01.708Z,2.30
2022-10-19T15:27:45.460Z,2.77
2022-10-19T15:30:29.208Z,2.37
2022-10-19T15:33:04.264Z,2.43
2022-10-19T15:35:42.841Z,2.90
2022-10-19T15:38:26.296Z,3.10
2022-10-19T15:41:03.993Z,2.43
2022-10-19T15:43:46.297Z,2.93
2022-10-19T15:46:24.994Z,2.30
2022-10-19T15:49:35.162Z,2.90
2022-10-19T15:52:20.314Z,3.50
2022-10-19T15:54:57.909Z,3.00
2022-10-19T15:57:38.585Z,3.67
2022-10-19T16:00:18.140Z,3.10
2022-10-19T16:02:53.065Z,2.90
2022-10-19T16:05:28.824Z,3.27
2022-10-19T16:08:07.826Z,2.90
2022-10-19T16:10:45.009Z,2.80
2022-10-19T16:13:19.902Z,3.80
2022-10-19T16:16:10.480Z,4.07
2022-10-19T16:18:46.616Z,3.97
2022-10-19T16:21:25.510Z,4.57
2022-10-19T16:24:00.848Z,4.83
2022-10-19T16:26:35.840Z,3.93
2022-10-19T16:29:10.789Z,4.17
2022-10-19T16:31:45.701Z,4.73
2022-10-19T16:34:20.651Z,3.67
2022-10-19T16:36:55.635Z,3.37
2022-10-19T16:39:30.626Z,2.97
2022-10-19T16:42:05.534Z,3.80
2022-10-19T16:44:40.555Z,4.40
2022-10-19T16:47:16.960Z,3.90
2022-10-19T16:50:00.619Z,4.67
2022-10-19T16:52:35.628Z,5.03
2022-10-19T16:55:11.139Z,4.20
2022-10-19T16:57:46.057Z,4.80
2022-10-19T17:00:21.448Z,5.23
2022-10-19T17:02:56.351Z,4.70
2022-10-19T17:05:31.294Z,4.70
2022-10-19T17:08:06.803Z,5.40
2022-10-19T17:10:41.756Z,5.30
2022-10-19T17:13:16.732Z,5.83
2022-10-19T17:15:52.641Z,5.47
2022-10-19T17:18:27.561Z,5.60
2022-10-19T17:21:10.190Z,5.47
2022-10-19T17:23:46.619Z,5.50
2022-10-19T17:26:38.683Z,6.03
2022-10-19T17:29:14.094Z,5.30
2022-10-19T17:31:49.805Z,5.87
2022-10-19T17:34:25.024Z,8.30
2022-10-19T17:37:00.147Z,8.17
2022-10-19T17:39:35.150Z,7.13
2022-10-19T17:42:10.730Z,8.50
2022-10-19T17:44:45.689Z,8.07
2022-10-19T17:47:21.087Z,6.90
2022-10-19T17:49:55.972Z,7.33
2022-10-19T17:52:30.910Z,6.23
2022-10-19T17:55:12.311Z,6.53
2022-10-19T17:57:47.617Z,6.10
2022-10-19T18:00:22.752Z,6.43
2022-10-19T18:02:57.847Z,5.73
2022-10-19T18:05:32.778Z,6.80
2022-10-19T18:08:07.687Z,6.50
2022-10-19T18:10:42.617Z,6.83
2022-10-19T18:13:17.525Z,6.83
2022-10-19T18:15:52.606Z,6.97
2022-10-19T18:18:30.436Z,6.67
2022-10-19T18:21:14.407Z,7.57
2022-10-19T18:23:49.330Z,7.37
2022-10-19T18:26:27.403Z,8.07
2022-10-19T18:29:10.587Z,8.70
2022-10-19T18:31:51.166Z,8.97
2022-10-19T18:34:26.941Z,9.47
2022-10-19T18:37:02.084Z,8.67
2022-10-19T18:39:37.164Z,8.17
2022-10-19T18:42:12.758Z,9.10
2022-10-19T18:44:47.756Z,9.47
2022-10-19T18:47:22.692Z,8.27
2022-10-19T18:49:57.672Z,9.00
2022-10-19T18:52:36.108Z,7.70
2022-10-19T18:55:11.287Z,8.10
2022-10-19T18:57:46.228Z,8.00
2022-10-19T19:00:21.169Z,8.53
2022-10-19T19:02:56.138Z,9.20
2022-10-19T19:05:33.255Z,8.53
2022-10-19T19:08:08.181Z,10.17
2022-10-19T19:10:46.175Z,11.57
2022-10-19T19:13:21.365Z,9.20
2022-10-19T19:15:58.618Z,10.93
2022-10-19T19:18:34.225Z,7.90
2022-10-19T19:21:20.740Z,8.63
2022-10-19T19:23:58.918Z,9.00
2022-10-19T19:26:39.272Z,10.10
2022-10-19T19:29:14.723Z,10.53
2022-10-19T19:31:50.499Z,12.50
2022-10-19T19:34:25.538Z,11.30
2022-10-19T19:37:00.628Z,10.30
2022-10-19T19:39:35.673Z,9.50
2022-10-19T19:42:11.113Z,10.57
2022-10-19T19:44:46.101Z,10.97
2022-10-19T19:47:21.090Z,10.33
2022-10-19T19:49:56.008Z,10.80
2022-10-19T19:52:31.533Z,10.80
2022-10-19T19:55:06.752Z,11.10
2022-10-19T19:57:41.684Z,11.60
2022-10-19T20:00:17.253Z,11.10
2022-10-19T20:02:56.777Z,10.67
2022-10-19T20:05:32.374Z,9.70
2022-10-19T20:08:08.486Z,11.60
2022-10-19T20:10:43.638Z,10.13
2022-10-19T20:13:18.734Z,9.80
2022-10-19T20:15:53.831Z,10.37
2022-10-19T20:18:29.631Z,10.20
2022-10-19T20:21:05.849Z,10.93
2022-10-19T20:23:43.723Z,15.83
2022-10-19T20:26:21.534Z,10.50
2022-10-19T20:28:57.232Z,10.03
2022-10-19T20:31:33.497Z,10.37
2022-10-19T20:34:13.811Z,11.13
2022-10-19T20:36:49.010Z,11.20
2022-10-19T20:39:23.886Z,11.27
2022-10-19T20:41:58.800Z,10.83
2022-10-19T20:44:33.726Z,11.63
2022-10-19T20:47:08.642Z,11.57
2022-10-19T20:49:43.669Z,10.97
2022-10-19T20:52:18.540Z,12.17
2022-10-19T20:54:53.521Z,11.30
2022-10-19T20:57:28.570Z,11.40
2022-10-19T21:00:04.984Z,10.93
2022-10-19T21:02:39.924Z,10.53
2022-10-19T21:05:15.025Z,13.90
2022-10-19T21:07:49.897Z,11.63
2022-10-19T21:10:24.872Z,11.30
2022-10-19T21:12:59.746Z,9.87
2022-10-19T21:15:34.653Z,10.47
2022-10-19T21:18:09.529Z,12.97
2022-10-19T21:20:44.485Z,9.93
2022-10-19T21:23:19.449Z,10.00
2022-10-19T21:25:55.422Z,10.20
2022-10-19T21:28:30.262Z,11.33
2022-10-19T21:31:07.904Z,12.60
2022-10-19T21:33:43.855Z,12.30
2022-10-19T21:36:21.045Z,11.60
2022-10-19T21:38:56.299Z,12.53
2022-10-19T21:41:32.362Z,11.27
2022-10-19T21:44:08.056Z,15.03
2022-10-19T21:46:43.588Z,10.50
2022-10-19T21:49:18.993Z,10.27
2022-10-19T21:51:55.081Z,10.73
2022-10-19T21:54:30.400Z,9.93
2022-10-19T21:57:05.353Z,12.10
2022-10-19T21:59:40.256Z,13.97
2022-10-19T22:02:15.188Z,10.47
2022-10-19T22:04:50.065Z,10.80
2022-10-19T22:07:25.018Z,10.40
2022-10-19T22:09:59.952Z,10.03
2022-10-19T22:12:35.146Z,12.37
2022-10-19T22:15:11.089Z,11.10
2022-10-19T22:17:45.967Z,10.10
2022-10-19T22:20:20.961Z,10.13
2022-10-19T22:22:55.837Z,14.67
2022-10-19T22:25:32.701Z,11.00
2022-10-19T22:28:07.715Z,11.50
2022-10-19T22:30:44.962Z,11.30
2022-10-19T22:33:19.915Z,10.63
2022-10-19T22:35:57.595Z,11.20
2022-10-19T22:38:32.699Z,10.60
2022-10-19T22:41:07.996Z,13.30
2022-10-19T22:43:43.888Z,12.77
2022-10-19T22:46:18.766Z,13.33
2022-10-19T22:48:53.764Z,18.47
2022-10-19T22:51:28.829Z,12.43
2022-10-19T22:54:04.031Z,13.03
2022-10-19T22:56:39.357Z,12.17
2022-10-19T22:59:14.219Z,11.63
2022-10-19T23:01:49.209Z,11.97
2022-10-19T23:04:24.239Z,11.73
2022-10-19T23:06:59.157Z,11.90
2022-10-19T23:09:34.130Z,11.30
2022-10-19T23:12:08.972Z,12.10
2022-10-19T23:14:43.959Z,12.20
2022-10-19T23:17:18.857Z,13.57
2022-10-19T23:19:53.814Z,12.60
2022-10-19T23:22:28.755Z,11.17
2022-10-19T23:25:04.039Z,11.43
2022-10-19T23:27:39.262Z,12.43
2022-10-19T23:30:14.399Z,13.63
2022-10-19T23:32:49.308Z,11.97
2022-10-19T23:35:24.264Z,11.27
2022-10-19T23:37:59.112Z,12.07
2022-10-19T23:40:34.958Z,12.93
2022-10-19T23:43:10.474Z,14.87
2022-10-19T23:45:45.730Z,11.00
2022-10-19T23:48:20.772Z,15.10
2022-10-19T23:51:09.635Z,12.47
2022-10-19T23:53:47.522Z,10.57
2022-10-19T23:56:28.854Z,13.03
2022-10-19T23:59:07.211Z,11.30
